Palmer Municipal Airport
PAAQ : now visible

Airfield :











YOU CAN JOIN US ON...

 
LOGIN :

Register | Disclaimer

   EN    FR    IT 

 









Legend :    VFR   Marginal VFR   IFR   Intensive IFR   Very Intensive IFR
Visi :
Ceiling :
>= 8 km
>= 3000ft
5 to 8 km
1000 to 3000 ft
1500m to 5 km
500 to 1000 ft
800 to 1500m
200 to 500 ft
< 800m
< 200 ft
Symbols :   Thunderstorms  Fog  Heavy snow  Heavy precipitations  Wind > 20 kt






- Airport Elevation : 242 ft
- IATA code : PAQ


PAAQ - Palmer Municipal

CURRENT METAR :
  • 242353Z 23007KT 10SM CLR 22/15 A3000 RMK AO2 SLP159 T02220150 10222 20144 55000

EXPIRED METARs :
  • 242253Z VRB04KT 10SM SCT090 20/14 A2999 RMK AO2 SLP158 T02000139
  • 242153Z 19005KT 10SM BKN090 21/14 A3000 RMK AO2 SLP158 T02060144
  • 242124Z 18003KT 10SM SCT025 19/14 A3000 RMK AO2 T01940139
  • 242115Z VRB03KT 10SM BKN025 21/14 A3000 RMK AO2 T02060144
  • 242053Z 00000KT 10SM SCT020 18/13 A3000 RMK AO2 SLP160 T01830133 58001
  • 241953Z 00000KT 10SM CLR 18/13 A3000 RMK AO2 SLP159 T01830133

TAF PAAQ
Valid from the 25 at 00:00 until the 26 at 00:00 UTC


242320Z 2500/2524 18006KT P6SM FEW025 BKN080
FM250200 13008G16KT P6SM VCSH SCT040 BKN080
FM251200 01005KT P6SM BKN025
FM252000 16009KT P6SM SCT025 BKN040
PAZA FIR / North America



MET'MAP, your aeronautical weather chart ! - Copyright ORBIFLY December 2007 - Disclaimer

ORBIFLY MET'MAP TEAM :

Programming & Development : Alexandra Zaïnal
Original concept : Baudouin d'Aumeries
Technical & hardware support : Manuel Goepfert
Assistance : Marc-Olivier Méhu




SOURCES & CREDITS :

   NOAA       Earth
Advisory